Time;durP1;ratioP1;P1;durP2;ratioP2;P2;SDS_P1;SDS_P2;PMS_P1;PMS_P2;Temp;Humidity;BMP_temperature;BMP_pressure;BME280_temperature;BME280_humidity;BME280_pressure;Samples;Min_cycle;Max_cycle;Signal;HPM_P1;HPM_P2
2022/12/28 00:02:07;;;;;;;;;3.00;3.00;;;;;;;;5047760;28;45498;-71
2022/12/28 00:04:32;;;;;;;;;7.25;4.00;;;;;;;;5061218;28;45197;-71
2022/12/28 00:06:57;;;;;;;;;5.00;5.00;;;;;;;;5060030;28;45193;-71
2022/12/28 00:09:23;;;;;;;;;7.50;4.00;;;;;;;;5053091;28;45209;-72
2022/12/28 00:11:49;;;;;;;;;5.25;4.00;;;;;;;;5060714;28;45846;-72
2022/12/28 00:14:14;;;;;;;;;3.00;3.00;;;;;;;;5054048;28;45163;-71
2022/12/28 00:16:40;;;;;;;;;6.00;5.00;;;;;;;;5061085;28;45209;-71
2022/12/28 00:19:08;;;;;;;;;2.75;2.75;;;;;;;;5058472;28;45380;-72
2022/12/28 00:21:33;;;;;;;;;5.75;3.75;;;;;;;;5061111;28;45453;-72
2022/12/28 00:23:59;;;;;;;;;5.50;3.50;;;;;;;;5059874;28;45356;-71
2022/12/28 00:26:26;;;;;;;;;5.00;2.00;;;;;;;;5044729;28;45292;-71
2022/12/28 00:28:51;;;;;;;;;5.00;4.00;;;;;;;;5053534;28;45230;-71
2022/12/28 00:31:16;;;;;;;;;5.00;4.00;;;;;;;;5060167;28;45923;-72
2022/12/28 00:33:42;;;;;;;;;3.00;3.00;;;;;;;;5036030;28;45235;-71
2022/12/28 00:36:14;;;;;;;;;6.00;3.25;;;;;;;;5060857;28;45257;-71
2022/12/28 00:38:40;;;;;;;;;3.00;3.00;;;;;;;;5057140;28;45582;-71
2022/12/28 00:41:05;;;;;;;;;5.00;4.00;;;;;;;;5059846;28;45236;-71
2022/12/28 00:43:31;;;;;;;;;6.00;3.75;;;;;;;;5058528;28;45225;-72
2022/12/28 00:45:56;;;;;;;;;4.25;3.00;;;;;;;;5061757;28;45408;-71
2022/12/28 00:48:21;;;;;;;;;3.75;3.75;;;;;;;;5046650;28;45418;-72
2022/12/28 00:50:46;;;;;;;;;3.00;3.00;;;;;;;;5043285;28;47275;-71
2022/12/28 00:53:12;;;;;;;;;5.75;5.00;;;;;;;;5037361;28;45472;-72
2022/12/28 00:55:37;;;;;;;;;4.25;4.25;;;;;;;;5036769;28;44749;-71
2022/12/28 00:58:03;;;;;;;;;3.00;3.00;;;;;;;;5052651;28;45432;-71
2022/12/28 01:00:28;;;;;;;;;4.25;2.75;;;;;;;;5041842;28;47648;-72
2022/12/28 01:02:53;;;;;;;;;4.00;4.00;;;;;;;;5050500;28;45412;-72
2022/12/28 01:05:19;;;;;;;;;5.00;4.00;;;;;;;;5052578;28;45261;-71
2022/12/28 01:07:44;;;;;;;;;5.00;4.00;;;;;;;;5054025;28;45508;-71
2022/12/28 01:10:09;;;;;;;;;3.00;3.00;;;;;;;;5058449;28;45625;-71
2022/12/28 01:12:35;;;;;;;;;3.25;2.75;;;;;;;;5055637;28;45497;-71
2022/12/28 01:15:00;;;;;;;;;4.50;4.50;;;;;;;;5041622;28;45353;-71
2022/12/28 01:17:25;;;;;;;;;5.00;3.00;;;;;;;;5057648;28;44779;-71
2022/12/28 01:19:51;;;;;;;;;4.50;3.00;;;;;;;;5042386;28;47245;-71
2022/12/28 01:22:16;;;;;;;;;5.00;4.00;;;;;;;;5054128;28;45318;-71
2022/12/28 01:24:41;;;;;;;;;2.75;2.75;;;;;;;;5056185;28;45357;-71
2022/12/28 01:27:06;;;;;;;;;4.50;4.25;;;;;;;;5055328;28;45294;-70
2022/12/28 01:29:32;;;;;;;;;6.00;4.00;;;;;;;;5038994;28;45475;-70
2022/12/28 01:31:57;;;;;;;;;3.75;3.75;;;;;;;;5056619;28;45257;-70
2022/12/28 01:34:23;;;;;;;;;4.00;4.00;;;;;;;;5049686;28;45586;-70
2022/12/28 01:36:48;;;;;;;;;2.75;1.75;;;;;;;;5057789;28;45481;-72
2022/12/28 01:39:13;;;;;;;;;3.25;3.00;;;;;;;;5042577;28;46915;-70
2022/12/28 01:41:39;;;;;;;;;3.00;3.00;;;;;;;;5057016;28;45316;-70
2022/12/28 01:44:05;;;;;;;;;3.50;3.50;;;;;;;;5032271;28;45358;-70
2022/12/28 01:46:37;;;;;;;;;2.75;1.00;;;;;;;;5058666;28;45513;-70
2022/12/28 01:49:08;;;;;;;;;4.50;3.50;;;;;;;;5038098;28;45701;-72
2022/12/28 01:51:41;;;;;;;;;4.25;4.00;;;;;;;;5037730;28;45624;-72
2022/12/28 01:54:06;;;;;;;;;5.75;3.00;;;;;;;;5037531;28;45486;-70
2022/12/28 01:56:31;;;;;;;;;4.00;4.00;;;;;;;;5057062;28;45163;-70
2022/12/28 01:58:57;;;;;;;;;3.50;3.50;;;;;;;;5051237;28;46175;-70
2022/12/28 02:01:23;;;;;;;;;3.00;2.00;;;;;;;;5058301;28;45321;-70
2022/12/28 02:03:48;;;;;;;;;3.50;3.50;;;;;;;;5033796;28;45608;-70
2022/12/28 02:06:13;;;;;;;;;4.50;3.00;;;;;;;;5058942;28;45154;-70
2022/12/28 02:08:40;;;;;;;;;3.00;3.00;;;;;;;;5053010;28;45377;-71
2022/12/28 02:11:06;;;;;;;;;2.50;2.00;;;;;;;;5057961;28;45557;-70
2022/12/28 02:13:32;;;;;;;;;3.00;2.25;;;;;;;;5050382;28;45364;-71
2022/12/28 02:15:57;;;;;;;;;4.50;3.25;;;;;;;;5058661;28;45415;-70
2022/12/28 02:18:24;;;;;;;;;3.75;2.75;;;;;;;;5053042;28;45281;-70
2022/12/28 02:20:52;;;;;;;;;2.00;2.00;;;;;;;;5058617;28;45317;-71
2022/12/28 02:23:20;;;;;;;;;7.00;3.50;;;;;;;;5055135;28;45274;-71
2022/12/28 02:26:04;;;;;;;;;4.50;3.00;;;;;;;;5058859;28;45333;-70
2022/12/28 02:28:48;;;;;;;;;6.75;2.50;;;;;;;;5035889;28;47140;-70
2022/12/28 02:31:20;;;;;;;;;4.00;4.00;;;;;;;;5056048;28;45234;-71
2022/12/28 02:33:53;;;;;;;;;1.50;0.50;;;;;;;;5035296;28;45346;-71
2022/12/28 02:36:23;;;;;;;;;3.50;3.50;;;;;;;;5057632;28;44878;-71
2022/12/28 02:39:01;;;;;;;;;2.25;2.25;;;;;;;;5038010;28;46808;-70
2022/12/28 02:41:28;;;;;;;;;4.50;3.00;;;;;;;;5049790;28;45489;-71
2022/12/28 02:43:53;;;;;;;;;3.00;2.00;;;;;;;;5043383;28;45339;-71
2022/12/28 02:52:05;;;;;;;;;3.25;3.25;;;;;;;;5056294;28;45326;-71
2022/12/28 02:57:51;;;;;;;;;3.75;3.75;;;;;;;;5043869;28;45286;-70
2022/12/28 03:00:18;;;;;;;;;4.00;4.00;;;;;;;;5040901;28;46801;-71
2022/12/28 03:02:50;;;;;;;;;4.00;3.00;;;;;;;;5051277;28;45296;-71
2022/12/28 03:08:25;;;;;;;;;4.25;3.00;;;;;;;;5047986;28;44742;-71
2022/12/28 03:10:55;;;;;;;;;5.75;3.25;;;;;;;;5052819;28;45406;-71
2022/12/28 03:13:43;;;;;;;;;3.00;3.00;;;;;;;;5039502;28;45392;-71
2022/12/28 03:16:16;;;;;;;;;4.25;4.25;;;;;;;;5037535;28;45286;-71
2022/12/28 03:32:31;;;;;;;;;5.75;4.00;;;;;;;;5053317;28;45519;-71
2022/12/28 03:34:56;;;;;;;;;4.00;3.50;;;;;;;;5056290;28;45490;-71
2022/12/28 03:37:31;;;;;;;;;4.50;4.50;;;;;;;;5051735;28;45332;-71
2022/12/28 03:40:02;;;;;;;;;4.00;3.25;;;;;;;;5034814;28;46063;-72
2022/12/28 03:45:23;;;;;;;;;3.75;3.00;;;;;;;;5058393;28;45300;-71
2022/12/28 03:47:50;;;;;;;;;4.00;4.00;;;;;;;;5047186;28;45427;-71
2022/12/28 03:50:16;;;;;;;;;7.50;3.75;;;;;;;;5052141;28;45464;-71
2022/12/28 03:52:42;;;;;;;;;11.00;5.25;;;;;;;;5050358;28;45291;-71
2022/12/28 03:55:07;;;;;;;;;4.00;4.00;;;;;;;;5034387;28;45674;-71
2022/12/28 03:57:32;;;;;;;;;3.00;3.00;;;;;;;;5037275;28;45424;-71
2022/12/28 03:59:58;;;;;;;;;3.00;2.75;;;;;;;;5053665;28;45345;-71
2022/12/28 04:02:23;;;;;;;;;4.50;4.00;;;;;;;;5037788;28;47355;-71
2022/12/28 04:04:48;;;;;;;;;6.75;5.00;;;;;;;;5052988;28;45273;-71
2022/12/28 04:07:13;;;;;;;;;5.50;5.25;;;;;;;;5057416;28;45367;-71
2022/12/28 04:09:38;;;;;;;;;6.00;5.00;;;;;;;;5050689;28;45313;-71
2022/12/28 04:12:04;;;;;;;;;5.00;5.00;;;;;;;;5056286;28;45430;-71
2022/12/28 04:14:29;;;;;;;;;6.00;6.00;;;;;;;;5054483;28;46456;-70
2022/12/28 04:16:54;;;;;;;;;7.50;3.75;;;;;;;;5057931;28;45459;-71
2022/12/28 04:19:19;;;;;;;;;3.00;3.00;;;;;;;;5036374;28;46192;-71
2022/12/28 04:21:45;;;;;;;;;6.50;5.75;;;;;;;;5058296;28;45283;-71
2022/12/28 04:24:10;;;;;;;;;7.75;4.00;;;;;;;;5055326;28;45196;-71
2022/12/28 04:26:35;;;;;;;;;5.25;4.00;;;;;;;;5060028;28;45265;-71
2022/12/28 04:29:01;;;;;;;;;6.50;4.00;;;;;;;;5036556;28;45932;-71
2022/12/28 04:31:27;;;;;;;;;7.75;6.00;;;;;;;;5059872;28;45268;-71
2022/12/28 04:33:53;;;;;;;;;4.75;4.00;;;;;;;;5033113;28;45152;-71
2022/12/28 04:36:18;;;;;;;;;4.50;4.50;;;;;;;;5060492;28;45287;-71
2022/12/28 04:38:43;;;;;;;;;9.50;4.75;;;;;;;;5050589;28;45407;-70
2022/12/28 04:41:09;;;;;;;;;4.75;3.50;;;;;;;;5042401;28;47068;-71
2022/12/28 04:43:35;;;;;;;;;7.00;3.75;;;;;;;;5037747;28;45258;-71
2022/12/28 04:46:01;;;;;;;;;4.25;2.75;;;;;;;;5043622;28;45183;-71
2022/12/28 04:48:26;;;;;;;;;4.00;4.00;;;;;;;;5056320;28;46346;-71
2022/12/28 04:50:52;;;;;;;;;8.00;4.50;;;;;;;;5043556;28;47573;-71
2022/12/28 04:53:17;;;;;;;;;5.00;5.00;;;;;;;;5050068;28;45235;-71
2022/12/28 04:55:42;;;;;;;;;2.25;2.25;;;;;;;;5043641;28;45284;-70
2022/12/28 04:58:07;;;;;;;;;4.00;3.25;;;;;;;;5035737;28;45562;-71
2022/12/28 05:00:33;;;;;;;;;3.50;3.50;;;;;;;;5050353;28;45445;-71
2022/12/28 05:02:58;;;;;;;;;2.25;2.00;;;;;;;;5050452;28;45237;-71
2022/12/28 05:05:24;;;;;;;;;5.00;2.25;;;;;;;;5052483;28;45238;-71
2022/12/28 05:07:49;;;;;;;;;3.00;3.00;;;;;;;;5053232;28;45500;-71
2022/12/28 05:10:14;;;;;;;;;3.00;3.00;;;;;;;;5053177;28;46133;-71
2022/12/28 05:12:39;;;;;;;;;3.75;3.75;;;;;;;;5054536;28;45281;-71
2022/12/28 05:15:05;;;;;;;;;1.00;1.00;;;;;;;;5054582;28;45287;-71
2022/12/28 05:17:30;;;;;;;;;3.00;3.00;;;;;;;;5053462;28;45217;-71
2022/12/28 05:19:55;;;;;;;;;4.00;3.00;;;;;;;;5042906;28;46574;-71
2022/12/28 05:22:21;;;;;;;;;2.00;2.00;;;;;;;;5053326;28;45395;-72
2022/12/28 05:24:46;;;;;;;;;3.00;3.00;;;;;;;;5056150;28;45265;-71
2022/12/28 05:27:11;;;;;;;;;3.75;3.75;;;;;;;;5055590;28;45616;-72
2022/12/28 05:29:36;;;;;;;;;3.00;3.00;;;;;;;;5056791;28;45409;-72
2022/12/28 05:32:01;;;;;;;;;9.00;4.00;;;;;;;;5057168;28;45399;-72
2022/12/28 05:34:27;;;;;;;;;3.00;2.00;;;;;;;;5042100;28;45247;-72
2022/12/28 05:36:52;;;;;;;;;4.25;2.75;;;;;;;;5056374;28;45272;-72
2022/12/28 05:39:17;;;;;;;;;0.00;0.00;;;;;;;;5053975;28;45317;-72
2022/12/28 05:41:42;;;;;;;;;3.00;3.00;;;;;;;;5039741;28;45446;-72
2022/12/28 05:44:07;;;;;;;;;2.75;2.75;;;;;;;;5052302;28;45146;-72
2022/12/28 05:46:33;;;;;;;;;3.00;3.00;;;;;;;;5058437;28;45372;-72
2022/12/28 05:48:59;;;;;;;;;3.25;2.00;;;;;;;;5046127;28;45392;-71
2022/12/28 05:51:26;;;;;;;;;4.25;4.25;;;;;;;;5040292;28;45810;-71
2022/12/28 05:53:51;;;;;;;;;4.00;3.00;;;;;;;;5049673;28;45312;-72
2022/12/28 05:56:18;;;;;;;;;1.00;1.00;;;;;;;;5039575;28;45423;-72
2022/12/28 05:58:45;;;;;;;;;6.25;4.25;;;;;;;;5049061;28;46448;-72
2022/12/28 06:01:12;;;;;;;;;4.50;3.00;;;;;;;;5040340;28;45301;-72
2022/12/28 06:03:38;;;;;;;;;3.50;3.25;;;;;;;;5050907;28;45176;-72
2022/12/28 06:06:04;;;;;;;;;5.00;3.75;;;;;;;;5037450;28;46022;-72
2022/12/28 06:08:30;;;;;;;;;4.50;4.50;;;;;;;;5050995;28;45379;-73
2022/12/28 06:10:58;;;;;;;;;5.75;3.75;;;;;;;;5036632;28;45234;-73
2022/12/28 06:13:23;;;;;;;;;3.50;3.50;;;;;;;;5040029;28;45441;-73
2022/12/28 06:15:48;;;;;;;;;2.75;2.00;;;;;;;;5055086;28;45392;-73
2022/12/28 06:18:13;;;;;;;;;4.50;3.25;;;;;;;;5053502;28;46045;-72
2022/12/28 06:20:39;;;;;;;;;2.25;2.25;;;;;;;;5055009;28;45254;-73
2022/12/28 06:23:04;;;;;;;;;8.50;6.00;;;;;;;;5039321;28;45549;-73
2022/12/28 06:25:29;;;;;;;;;3.75;3.25;;;;;;;;5040954;28;45770;-73
2022/12/28 06:27:54;;;;;;;;;4.50;3.25;;;;;;;;5040056;28;47691;-74
2022/12/28 06:30:19;;;;;;;;;3.50;3.50;;;;;;;;5056637;28;45283;-73
2022/12/28 06:32:45;;;;;;;;;4.50;3.50;;;;;;;;5051190;28;45470;-73
2022/12/28 06:35:10;;;;;;;;;3.75;3.75;;;;;;;;5053525;28;45275;-73
2022/12/28 06:37:35;;;;;;;;;4.00;3.00;;;;;;;;5051130;28;46369;-72
2022/12/28 06:40:00;;;;;;;;;5.50;3.25;;;;;;;;5041590;28;45337;-73
2022/12/28 06:42:25;;;;;;;;;5.50;4.00;;;;;;;;5051514;28;45478;-73
2022/12/28 06:44:51;;;;;;;;;4.00;4.00;;;;;;;;5053016;28;45210;-73
2022/12/28 06:47:16;;;;;;;;;5.75;4.00;;;;;;;;5056745;28;45388;-72
2022/12/28 06:49:41;;;;;;;;;0.75;0.75;;;;;;;;5051882;28;45218;-73
2022/12/28 06:52:06;;;;;;;;;6.75;4.25;;;;;;;;5052230;28;45440;-72
2022/12/28 06:54:31;;;;;;;;;2.50;2.00;;;;;;;;5041647;28;45288;-73
2022/12/28 06:56:56;;;;;;;;;4.25;4.25;;;;;;;;5053652;28;45503;-73
2022/12/28 06:59:22;;;;;;;;;5.50;3.50;;;;;;;;5044210;28;45152;-73
2022/12/28 07:01:47;;;;;;;;;3.75;3.50;;;;;;;;5041875;28;45250;-73
2022/12/28 07:04:12;;;;;;;;;5.00;4.00;;;;;;;;5039542;28;45360;-73
2022/12/28 07:06:41;;;;;;;;;4.75;4.00;;;;;;;;5042007;28;45281;-72
2022/12/28 07:09:08;;;;;;;;;3.50;3.50;;;;;;;;5025093;28;45410;-74
2022/12/28 07:11:34;;;;;;;;;6.00;3.25;;;;;;;;5026659;28;45251;-72
2022/12/28 07:13:59;;;;;;;;;6.25;3.00;;;;;;;;5041790;28;45538;-73
2022/12/28 07:16:26;;;;;;;;;5.50;4.00;;;;;;;;5040502;28;45245;-72
2022/12/28 07:18:51;;;;;;;;;5.00;5.00;;;;;;;;5040459;28;45186;-73
2022/12/28 07:21:20;;;;;;;;;5.50;3.00;;;;;;;;5043141;28;45286;-72
2022/12/28 07:23:45;;;;;;;;;4.00;3.00;;;;;;;;5039955;28;45381;-72
2022/12/28 07:26:11;;;;;;;;;7.75;4.25;;;;;;;;5058207;28;45269;-71
2022/12/28 07:28:42;;;;;;;;;4.25;3.00;;;;;;;;5044050;28;45445;-71
2022/12/28 07:31:08;;;;;;;;;7.00;3.75;;;;;;;;5041148;28;45522;-71
2022/12/28 07:33:34;;;;;;;;;2.25;2.25;;;;;;;;5044447;28;45388;-71
2022/12/28 07:35:59;;;;;;;;;4.75;4.00;;;;;;;;5040444;28;47243;-72
2022/12/28 07:38:25;;;;;;;;;4.25;3.00;;;;;;;;5047219;28;45321;-71
2022/12/28 07:40:50;;;;;;;;;8.25;4.25;;;;;;;;5061424;28;45273;-71
2022/12/28 07:43:15;;;;;;;;;4.75;4.00;;;;;;;;5041660;28;46161;-71
2022/12/28 07:45:40;;;;;;;;;3.00;3.00;;;;;;;;5060255;28;46114;-71
2022/12/28 07:48:05;;;;;;;;;3.50;2.25;;;;;;;;5034661;28;45352;-72
2022/12/28 07:50:31;;;;;;;;;5.00;4.00;;;;;;;;5061442;28;45368;-71
2022/12/28 07:52:56;;;;;;;;;3.00;3.00;;;;;;;;5048305;28;45376;-72
2022/12/28 07:55:23;;;;;;;;;4.50;2.50;;;;;;;;5044034;28;46599;-71
2022/12/28 07:57:49;;;;;;;;;3.75;3.75;;;;;;;;5051092;28;45503;-72
2022/12/28 08:00:15;;;;;;;;;5.00;2.00;;;;;;;;5052850;28;45332;-72
2022/12/28 08:02:40;;;;;;;;;5.00;3.00;;;;;;;;5054027;28;44797;-72
2022/12/28 08:05:05;;;;;;;;;3.00;2.00;;;;;;;;5051414;28;45413;-72
2022/12/28 08:07:30;;;;;;;;;4.00;3.25;;;;;;;;5055502;28;44763;-72
2022/12/28 08:09:56;;;;;;;;;5.00;2.75;;;;;;;;5055311;28;45345;-72
2022/12/28 08:12:21;;;;;;;;;4.50;4.50;;;;;;;;5052794;28;45277;-72
2022/12/28 08:14:46;;;;;;;;;2.50;2.50;;;;;;;;5033777;28;46817;-72
2022/12/28 08:17:11;;;;;;;;;4.00;2.50;;;;;;;;5039453;28;45513;-72
2022/12/28 08:19:36;;;;;;;;;5.00;3.00;;;;;;;;5056907;28;45187;-72
2022/12/28 08:22:02;;;;;;;;;4.50;4.00;;;;;;;;5056433;28;45498;-72
2022/12/28 08:24:27;;;;;;;;;2.50;2.25;;;;;;;;5054701;28;45796;-72
2022/12/28 08:26:52;;;;;;;;;2.25;2.25;;;;;;;;5058239;28;45209;-72
2022/12/28 08:29:19;;;;;;;;;8.25;3.00;;;;;;;;5048627;28;45305;-72
2022/12/28 08:31:44;;;;;;;;;5.00;2.00;;;;;;;;5059088;28;45244;-72
2022/12/28 08:34:12;;;;;;;;;3.00;3.00;;;;;;;;5033185;28;46830;-72
2022/12/28 08:36:38;;;;;;;;;5.25;3.25;;;;;;;;5059622;28;45468;-71
2022/12/28 08:39:03;;;;;;;;;3.50;3.00;;;;;;;;5060624;28;45249;-72
2022/12/28 08:41:29;;;;;;;;;4.50;3.50;;;;;;;;5059174;28;45261;-72
2022/12/28 08:43:54;;;;;;;;;3.50;2.25;;;;;;;;5031294;28;46848;-72
2022/12/28 08:46:30;;;;;;;;;4.00;4.00;;;;;;;;5060199;28;45717;-72
2022/12/28 08:48:57;;;;;;;;;3.00;3.00;;;;;;;;5052004;28;45472;-71
2022/12/28 08:51:23;;;;;;;;;5.50;4.00;;;;;;;;5040074;28;46020;-72
2022/12/28 08:53:48;;;;;;;;;2.50;2.50;;;;;;;;5048483;28;45681;-71
2022/12/28 08:56:18;;;;;;;;;5.75;2.75;;;;;;;;5060085;28;45275;-71
2022/12/28 08:58:44;;;;;;;;;4.00;3.75;;;;;;;;5047884;28;45356;-72
2022/12/28 09:01:30;;;;;;;;;3.25;3.25;;;;;;;;5037751;28;46022;-72
2022/12/28 09:03:56;;;;;;;;;5.50;5.00;;;;;;;;5053459;28;46150;-72
2022/12/28 09:06:23;;;;;;;;;2.75;2.75;;;;;;;;5041424;28;45249;-72
2022/12/28 09:08:52;;;;;;;;;5.00;4.00;;;;;;;;5033139;28;45257;-72
2022/12/28 09:11:18;;;;;;;;;5.50;3.25;;;;;;;;5060074;28;45410;-72
2022/12/28 09:13:43;;;;;;;;;4.00;4.00;;;;;;;;5049935;28;45349;-72
2022/12/28 09:16:10;;;;;;;;;5.00;3.00;;;;;;;;5059098;28;45339;-72
2022/12/28 09:18:36;;;;;;;;;4.25;3.75;;;;;;;;5049359;28;45388;-72
2022/12/28 09:21:04;;;;;;;;;5.25;4.00;;;;;;;;5058764;28;45259;-73
2022/12/28 09:23:29;;;;;;;;;4.50;4.00;;;;;;;;5045662;28;45341;-72
2022/12/28 09:25:55;;;;;;;;;6.50;4.00;;;;;;;;5058620;28;45901;-72
2022/12/28 09:28:20;;;;;;;;;5.75;4.00;;;;;;;;5047624;28;45205;-72
2022/12/28 09:30:45;;;;;;;;;4.75;4.75;;;;;;;;5058774;28;45241;-72
2022/12/28 09:36:01;;;;;;;;;6.75;3.00;;;;;;;;5060310;28;45253;-72
2022/12/28 09:38:26;;;;;;;;;4.00;4.00;;;;;;;;5046347;28;45403;-72
2022/12/28 09:40:51;;;;;;;;;7.50;3.00;;;;;;;;5040665;28;45372;-72
2022/12/28 09:43:17;;;;;;;;;3.00;3.00;;;;;;;;5049545;28;46750;-72
2022/12/28 09:45:43;;;;;;;;;2.50;2.50;;;;;;;;5059442;28;45316;-72
2022/12/28 09:48:12;;;;;;;;;5.75;4.00;;;;;;;;5045717;28;45167;-72
2022/12/28 09:50:37;;;;;;;;;2.75;2.75;;;;;;;;5060351;28;45281;-72
2022/12/28 09:53:22;;;;;;;;;4.75;4.50;;;;;;;;5047669;28;45515;-73
2022/12/28 09:56:01;;;;;;;;;5.00;4.50;;;;;;;;5050864;28;45356;-72
2022/12/28 09:58:27;;;;;;;;;4.25;4.00;;;;;;;;5050805;28;45218;-72
2022/12/28 10:00:54;;;;;;;;;7.00;5.00;;;;;;;;5052305;28;45277;-72
2022/12/28 10:03:25;;;;;;;;;5.00;4.00;;;;;;;;5051394;28;46268;-72
2022/12/28 10:05:52;;;;;;;;;7.00;4.75;;;;;;;;5053488;28;45313;-72
2022/12/28 10:08:19;;;;;;;;;5.00;3.50;;;;;;;;5053819;28;45234;-72
2022/12/28 10:10:46;;;;;;;;;3.75;3.75;;;;;;;;5034954;28;46338;-72
2022/12/28 10:13:22;;;;;;;;;7.25;6.00;;;;;;;;5050715;28;45531;-72
2022/12/28 10:15:47;;;;;;;;;3.25;3.25;;;;;;;;5036406;28;45369;-72
2022/12/28 10:18:14;;;;;;;;;3.00;3.00;;;;;;;;5029071;28;45412;-72
2022/12/28 10:20:39;;;;;;;;;4.00;2.25;;;;;;;;5030185;28;45853;-72
2022/12/28 10:23:05;;;;;;;;;4.00;4.00;;;;;;;;5041114;28;45370;-72
2022/12/28 10:25:31;;;;;;;;;4.00;3.00;;;;;;;;5025202;28;45290;-72
2022/12/28 10:27:57;;;;;;;;;3.00;2.75;;;;;;;;5041716;28;45322;-72
2022/12/28 10:30:26;;;;;;;;;4.00;4.00;;;;;;;;5040545;28;45387;-72
2022/12/28 10:32:53;;;;;;;;;3.25;3.25;;;;;;;;5040922;28;46203;-72
2022/12/28 10:35:23;;;;;;;;;6.00;3.00;;;;;;;;5025005;28;45665;-73
2022/12/28 10:37:49;;;;;;;;;5.67;4.33;;;;;;;;5030219;28;45238;-72
2022/12/28 10:40:22;;;;;;;;;3.00;3.00;;;;;;;;5039446;28;45156;-72
2022/12/28 10:42:50;;;;;;;;;4.67;3.00;;;;;;;;5039803;28;45194;-73
2022/12/28 10:45:16;;;;;;;;;3.67;3.00;;;;;;;;5040975;28;45455;-71
2022/12/28 10:47:43;;;;;;;;;2.00;1.00;;;;;;;;5045416;28;45523;-72
2022/12/28 10:50:28;;;;;;;;;4.00;3.00;;;;;;;;5053233;28;45431;-75
2022/12/28 10:52:57;;;;;;;;;3.00;3.00;;;;;;;;5052140;28;45554;-75
2022/12/28 10:55:27;;;;;;;;;5.67;2.67;;;;;;;;5047248;28;45224;-76
2022/12/28 10:57:52;;;;;;;;;3.33;2.00;;;;;;;;5045601;28;45402;-75
2022/12/28 11:00:19;;;;;;;;;2.00;2.00;;;;;;;;5055751;28;45582;-76
2022/12/28 11:02:44;;;;;;;;;6.00;3.67;;;;;;;;5052802;28;45368;-75
2022/12/28 11:05:17;;;;;;;;;2.67;2.33;;;;;;;;5051912;28;45310;-75
2022/12/28 11:07:44;;;;;;;;;3.00;3.00;;;;;;;;5051781;28;45331;-75
2022/12/28 11:10:26;;;;;;;;;2.33;2.33;;;;;;;;5050757;28;45317;-75
2022/12/28 11:12:56;;;;;;;;;2.33;2.33;;;;;;;;5052769;28;45444;-75
2022/12/28 11:15:22;;;;;;;;;3.00;2.00;;;;;;;;5033254;28;45448;-75
2022/12/28 11:17:55;;;;;;;;;5.67;3.00;;;;;;;;5052318;28;45254;-75
2022/12/28 11:20:28;;;;;;;;;4.33;3.33;;;;;;;;5053536;28;45401;-75
2022/12/28 11:22:53;;;;;;;;;3.00;2.67;;;;;;;;5048168;28;45390;-75
2022/12/28 11:25:20;;;;;;;;;3.67;3.67;;;;;;;;5033671;28;45379;-74
2022/12/28 11:27:46;;;;;;;;;5.67;4.00;;;;;;;;5038082;28;45430;-71
2022/12/28 11:30:12;;;;;;;;;3.67;2.00;;;;;;;;5056437;28;45386;-72
2022/12/28 11:32:41;;;;;;;;;3.33;2.00;;;;;;;;5034912;28;48493;-72
2022/12/28 11:35:13;;;;;;;;;2.33;2.33;;;;;;;;5054864;28;45301;-71
2022/12/28 11:37:47;;;;;;;;;3.00;3.00;;;;;;;;5047417;28;45385;-72
2022/12/28 11:40:32;;;;;;;;;3.33;3.33;;;;;;;;5029526;28;46304;-71
2022/12/28 11:42:57;;;;;;;;;5.33;1.67;;;;;;;;5047719;28;45681;-72
2022/12/28 11:45:42;;;;;;;;;3.00;3.00;;;;;;;;5050030;28;45523;-72
2022/12/28 11:48:26;;;;;;;;;3.00;3.00;;;;;;;;5049940;28;45522;-72
2022/12/28 11:50:51;;;;;;;;;7.33;4.33;;;;;;;;5033819;28;45940;-72
2022/12/28 11:53:32;;;;;;;;;5.67;3.67;;;;;;;;5053836;28;45420;-72
2022/12/28 11:56:10;;;;;;;;;1.33;1.33;;;;;;;;5049891;28;45386;-71
2022/12/28 11:58:41;;;;;;;;;1.00;1.00;;;;;;;;5048365;28;45440;-71
2022/12/28 12:01:10;;;;;;;;;3.00;3.00;;;;;;;;5057635;28;45284;-71
2022/12/28 12:03:54;;;;;;;;;23.75;17.00;;;;;;;;5047571;28;45379;-71
2022/12/28 12:06:19;;;;;;;;;5.00;3.00;;;;;;;;5054235;28;45241;-70
2022/12/28 12:08:52;;;;;;;;;3.33;3.33;;;;;;;;5052394;28;45356;-71
2022/12/28 12:11:17;;;;;;;;;3.00;3.00;;;;;;;;5039270;28;45738;-71
2022/12/28 12:13:46;;;;;;;;;3.33;2.00;;;;;;;;5031318;28;47168;-71
2022/12/28 12:16:41;;;;;;;;;3.00;3.00;;;;;;;;5056569;28;45656;-72
2022/12/28 12:19:07;;;;;;;;;1.67;1.00;;;;;;;;5029269;28;45460;-72
2022/12/28 12:21:42;;;;;;;;;5.67;4.00;;;;;;;;5055542;28;45174;-72
2022/12/28 12:24:26;;;;;;;;;4.33;3.00;;;;;;;;5048700;28;45234;-73
2022/12/28 12:26:54;;;;;;;;;3.00;3.00;;;;;;;;5057544;28;45193;-72
2022/12/28 12:29:34;;;;;;;;;3.00;3.00;;;;;;;;5034158;28;45425;-71
2022/12/28 12:32:20;;;;;;;;;2.00;2.00;;;;;;;;5058384;28;45380;-71
2022/12/28 12:34:50;;;;;;;;;4.33;3.33;;;;;;;;5035391;28;45468;-71
2022/12/28 12:37:29;;;;;;;;;2.00;2.00;;;;;;;;5042685;28;45329;-71
2022/12/28 12:40:23;;;;;;;;;4.00;3.00;;;;;;;;5054255;28;45357;-71
2022/12/28 12:43:07;;;;;;;;;4.00;2.00;;;;;;;;5030210;28;45720;-72
2022/12/28 12:45:35;;;;;;;;;3.00;3.00;;;;;;;;5047917;28;45348;-72
2022/12/28 12:48:07;;;;;;;;;4.00;4.00;;;;;;;;5036003;28;45251;-72
2022/12/28 12:51:02;;;;;;;;;4.00;4.00;;;;;;;;5041942;28;45375;-71
2022/12/28 12:53:39;;;;;;;;;3.00;3.00;;;;;;;;5035784;28;45445;-72
2022/12/28 12:56:23;;;;;;;;;2.00;2.00;;;;;;;;5039671;28;45604;-72
2022/12/28 12:58:49;;;;;;;;;4.33;4.00;;;;;;;;5034099;28;45494;-72
2022/12/28 13:01:28;;;;;;;;;5.00;4.00;;;;;;;;5057355;28;45400;-72
2022/12/28 13:03:55;;;;;;;;;6.00;3.00;;;;;;;;5055071;28;45474;-72
2022/12/28 13:06:23;;;;;;;;;7.75;7.75;;;;;;;;5058211;28;46177;-72
2022/12/28 13:08:59;;;;;;;;;4.00;4.00;;;;;;;;5051797;28;45380;-72
2022/12/28 13:11:25;;;;;;;;;3.33;3.33;;;;;;;;5058082;28;45617;-72
2022/12/28 13:13:51;;;;;;;;;8.00;2.00;;;;;;;;5051785;28;45392;-71
2022/12/28 13:16:18;;;;;;;;;4.67;3.00;;;;;;;;5058271;28;45328;-71
2022/12/28 13:18:54;;;;;;;;;4.00;4.00;;;;;;;;5054948;28;45312;-71
2022/12/28 13:21:20;;;;;;;;;6.00;4.00;;;;;;;;5059342;28;45604;-71
2022/12/28 13:23:46;;;;;;;;;4.33;4.33;;;;;;;;5045281;28;45395;-71
2022/12/28 13:26:13;;;;;;;;;5.00;4.00;;;;;;;;5042389;28;46327;-72
2022/12/28 13:28:43;;;;;;;;;5.00;3.33;;;;;;;;5046346;28;44775;-71
2022/12/28 13:31:14;;;;;;;;;3.67;3.67;;;;;;;;5042199;28;45394;-72
2022/12/28 13:33:39;;;;;;;;;2.33;2.33;;;;;;;;5049825;28;45480;-72
2022/12/28 13:36:11;;;;;;;;;5.00;5.00;;;;;;;;5060529;28;46790;-72
2022/12/28 13:38:36;;;;;;;;;7.00;6.00;;;;;;;;5034200;28;45427;-72
2022/12/28 13:41:02;;;;;;;;;3.00;3.00;;;;;;;;5053467;28;45286;-72
2022/12/28 13:43:45;;;;;;;;;6.33;4.00;;;;;;;;5049794;28;45498;-71
2022/12/28 13:46:13;;;;;;;;;5.67;3.00;;;;;;;;5055868;28;45292;-72
2022/12/28 13:48:42;;;;;;;;;4.67;4.67;;;;;;;;5049764;28;45276;-72
2022/12/28 13:51:11;;;;;;;;;5.00;4.00;;;;;;;;5054724;28;45166;-72
2022/12/28 13:53:36;;;;;;;;;5.00;5.00;;;;;;;;5048685;28;45277;-73
2022/12/28 13:56:04;;;;;;;;;4.33;4.00;;;;;;;;5058845;28;45374;-74
2022/12/28 13:58:32;;;;;;;;;8.00;4.67;;;;;;;;5052657;28;45447;-75
2022/12/28 14:00:59;;;;;;;;;6.33;6.00;;;;;;;;5053331;28;44705;-75
2022/12/28 14:03:24;;;;;;;;;4.00;4.00;;;;;;;;5050094;28;45392;-75
2022/12/28 14:05:58;;;;;;;;;6.00;5.00;;;;;;;;5053057;28;45383;-75
2022/12/28 14:08:25;;;;;;;;;7.00;5.00;;;;;;;;5037483;28;45704;-75
2022/12/28 14:10:50;;;;;;;;;4.33;4.00;;;;;;;;5053292;28;45426;-75
2022/12/28 14:13:17;;;;;;;;;6.25;5.25;;;;;;;;5053610;28;45443;-75
2022/12/28 14:15:42;;;;;;;;;5.00;5.00;;;;;;;;5054761;28;46163;-75
2022/12/28 14:18:08;;;;;;;;;6.00;5.00;;;;;;;;5034779;28;45385;-76
2022/12/28 14:20:54;;;;;;;;;6.00;5.00;;;;;;;;5055713;28;45309;-75
2022/12/28 14:23:19;;;;;;;;;5.67;5.67;;;;;;;;5029729;28;45771;-76
2022/12/28 14:25:44;;;;;;;;;3.00;2.00;;;;;;;;5057827;28;45362;-76
2022/12/28 14:28:17;;;;;;;;;5.00;5.00;;;;;;;;5055587;28;45528;-76
2022/12/28 14:30:49;;;;;;;;;9.33;6.00;;;;;;;;5057980;28;44714;-75
2022/12/28 14:33:19;;;;;;;;;4.25;4.25;;;;;;;;5033238;28;45363;-76
2022/12/28 14:35:47;;;;;;;;;4.00;2.50;;;;;;;;5023729;28;45469;-75
2022/12/28 14:38:16;;;;;;;;;4.33;3.00;;;;;;;;5048327;28;44821;-75
2022/12/28 14:40:42;;;;;;;;;4.00;4.00;;;;;;;;5056658;28;45348;-75
2022/12/28 14:43:33;;;;;;;;;5.50;4.00;;;;;;;;5036566;28;45453;-75
2022/12/28 14:46:19;;;;;;;;;5.50;3.75;;;;;;;;5031738;28;47709;-75
2022/12/28 14:48:44;;;;;;;;;6.00;4.00;;;;;;;;5049419;28;46319;-75
2022/12/28 14:51:10;;;;;;;;;6.00;4.33;;;;;;;;5059568;28;45396;-75
2022/12/28 14:53:35;;;;;;;;;4.25;4.00;;;;;;;;5050547;28;45348;-76
2022/12/28 14:56:17;;;;;;;;;7.00;5.33;;;;;;;;5052060;28;45329;-76
2022/12/28 14:58:54;;;;;;;;;5.00;5.00;;;;;;;;5050863;28;45380;-77
2022/12/28 15:01:20;;;;;;;;;6.25;6.25;;;;;;;;5054968;28;45290;-78
2022/12/28 15:03:49;;;;;;;;;13.00;11.00;;;;;;;;5049710;28;45399;-77
2022/12/28 15:06:15;;;;;;;;;11.00;10.00;;;;;;;;5037245;28;46172;-77
2022/12/28 15:08:40;;;;;;;;;7.75;4.75;;;;;;;;5050265;28;45347;-80
2022/12/28 15:11:07;;;;;;;;;8.75;7.00;;;;;;;;5055639;28;45388;-80
2022/12/28 15:13:33;;;;;;;;;5.00;5.00;;;;;;;;5050286;28;45571;-80
2022/12/28 15:15:59;;;;;;;;;6.75;6.00;;;;;;;;5054933;28;46255;-79
2022/12/28 15:18:25;;;;;;;;;9.00;7.00;;;;;;;;5032582;28;45529;-80
2022/12/28 15:20:50;;;;;;;;;7.25;6.25;;;;;;;;5058976;28;45386;-81